Time;durP1;ratioP1;P1;durP2;ratioP2;P2;SDS_P1;SDS_P2;PMS_P1;PMS_P2;Temp;Humidity;BMP_temperature;BMP_pressure;BME280_temperature;BME280_humidity;BME280_pressure;Samples;Min_cycle;Max_cycle;Signal;HPM_P1;HPM_P2
2021/07/14 08:48:41;;;;;;;18.93;17.23;;;24.90;98.30;;;;;;4079294;29;20452;-82
2021/07/14 08:54:46;;;;;;;17.60;16.20;;;25.40;98.30;;;;;;4092163;29;20483;-82
2021/07/14 09:27:19;;;;;;;16.10;14.57;;;26.50;98.30;;;;;;3875911;30;20476;-82
2021/07/14 09:29:26;;;;;;;16.27;14.77;;;26.50;98.30;;;;;;3933509;30;20491;-82
2021/07/14 09:31:32;;;;;;;16.60;15.20;;;26.60;98.30;;;;;;3947119;29;20480;-82
2021/07/14 09:33:50;;;;;;;16.80;15.50;;;26.60;98.30;;;;;;3982088;29;20479;-82
2021/07/14 09:42:08;;;;;;;15.43;14.13;;;26.20;98.30;;;;;;4034096;29;20547;-75
2021/07/14 09:44:19;;;;;;;15.50;14.17;;;26.00;98.30;;;;;;4033620;29;21012;-75
2021/07/14 09:46:22;;;;;;;15.83;14.43;;;26.20;98.30;;;;;;4033581;29;20472;-74
2021/07/14 09:48:27;;;;;;;16.37;14.80;;;26.50;98.30;;;;;;4033739;29;20489;-75
2021/07/14 09:50:33;;;;;;;15.40;14.10;;;26.80;98.30;;;;;;4033351;29;20465;-75
2021/07/14 09:52:37;;;;;;;16.90;14.03;;;27.10;98.30;;;;;;4034023;29;20845;-75
2021/07/14 09:54:41;;;;;;;15.30;13.80;;;27.10;98.30;;;;;;4033644;29;20505;-75
2021/07/14 09:56:44;;;;;;;15.83;14.43;;;27.30;98.30;;;;;;4033835;29;20554;-75
2021/07/14 09:59:01;;;;;;;16.87;15.27;;;27.30;98.30;;;;;;4087309;29;20488;-75
2021/07/14 10:01:06;;;;;;;16.27;14.97;;;27.40;98.30;;;;;;4096934;28;20556;-74
2021/07/14 10:03:08;;;;;;;15.00;13.50;;;27.40;98.30;;;;;;4137537;28;20841;-75
2021/07/14 10:05:12;;;;;;;15.83;14.63;;;27.40;98.30;;;;;;4137224;28;20717;-75
2021/07/14 10:07:18;;;;;;;15.80;14.50;;;27.40;98.30;;;;;;4137182;28;20946;-75
2021/07/14 10:09:24;;;;;;;16.97;15.47;;;27.50;98.30;;;;;;4136724;28;20465;-75
2021/07/14 10:11:29;;;;;;;15.10;13.80;;;27.50;98.30;;;;;;4138372;28;20830;-75
2021/07/14 10:13:32;;;;;;;15.10;13.80;;;27.70;98.30;;;;;;4137752;28;20498;-74
2021/07/14 10:15:37;;;;;;;15.33;13.77;;;27.90;98.30;;;;;;4136690;28;20479;-77
2021/07/14 10:17:41;;;;;;;14.53;13.23;;;28.10;98.30;;;;;;4137198;28;20473;-74
2021/07/14 10:19:44;;;;;;;15.93;14.43;;;28.30;98.30;;;;;;4138062;28;20466;-75
2021/07/14 10:21:48;;;;;;;14.30;13.10;;;28.10;98.30;;;;;;4138837;28;20502;-74
2021/07/14 10:23:53;;;;;;;14.70;13.40;;;28.10;98.30;;;;;;4137953;28;20565;-75
2021/07/14 10:25:56;;;;;;;16.60;15.10;;;28.10;98.30;;;;;;4137954;28;20471;-75
2021/07/14 10:28:01;;;;;;;15.30;14.00;;;28.10;98.30;;;;;;4138188;28;20478;-74
2021/07/14 10:30:04;;;;;;;16.27;14.80;;;28.20;98.30;;;;;;4136961;28;20478;-74
2021/07/14 10:32:10;;;;;;;15.60;14.30;;;28.20;98.30;;;;;;4137913;28;20475;-75
2021/07/14 10:34:14;;;;;;;19.77;15.60;;;28.10;98.30;;;;;;4137789;28;20495;-74
2021/07/14 10:36:23;;;;;;;16.13;14.93;;;27.90;98.30;;;;;;4138395;28;20938;-75
2021/07/14 10:38:29;;;;;;;18.30;16.43;;;27.70;98.30;;;;;;4138243;28;20838;-74
2021/07/14 10:40:36;;;;;;;16.60;15.17;;;27.50;98.30;;;;;;4137784;28;21088;-75
2021/07/14 10:42:39;;;;;;;17.37;15.57;;;27.50;98.30;;;;;;4138940;28;20494;-74
2021/07/14 10:44:43;;;;;;;16.80;15.40;;;27.50;98.30;;;;;;4138045;28;20509;-74
2021/07/14 10:46:46;;;;;;;16.80;15.40;;;27.40;98.30;;;;;;4137691;28;20475;-74
2021/07/14 10:48:52;;;;;;;17.30;15.53;;;27.60;98.30;;;;;;4137889;28;20493;-74
2021/07/14 10:50:56;;;;;;;16.07;14.77;;;28.00;98.30;;;;;;4138107;28;21014;-75
2021/07/14 10:53:00;;;;;;;18.20;16.80;;;28.50;98.30;;;;;;4137937;28;20467;-74
2021/07/14 10:55:04;;;;;;;16.10;14.60;;;28.90;98.30;;;;;;4137740;28;20632;-74
2021/07/14 10:57:09;;;;;;;16.43;14.87;;;29.00;98.30;;;;;;4137699;28;20536;-74
2021/07/14 10:59:14;;;;;;;16.90;15.03;;;29.20;98.30;;;;;;4137596;28;20470;-75
2021/07/14 11:01:41;;;;;;;15.60;14.40;;;29.50;98.30;;;;;;4137821;28;20473;-74
2021/07/14 11:03:47;;;;;;;15.13;13.90;;;29.20;98.30;;;;;;4137482;28;20473;-75
2021/07/14 11:05:51;;;;;;;17.97;14.70;;;29.20;98.30;;;;;;4138060;28;20548;-74
2021/07/14 11:07:54;;;;;;;16.07;14.57;;;29.20;98.30;;;;;;4137696;28;20980;-74
2021/07/14 11:09:57;;;;;;;16.40;15.10;;;29.20;98.30;;;;;;4137497;28;20481;-74
2021/07/14 11:12:00;;;;;;;16.07;14.47;;;29.00;98.30;;;;;;4138111;28;20470;-75
2021/07/14 11:14:06;;;;;;;16.13;14.63;;;29.10;98.30;;;;;;4137549;28;20466;-74
2021/07/14 11:16:27;;;;;;;16.60;15.17;;;29.30;98.30;;;;;;4137380;28;20557;-74
2021/07/14 11:18:39;;;;;;;15.97;14.50;;;29.20;98.30;;;;;;4137279;28;20875;-74
2021/07/14 11:20:42;;;;;;;17.10;15.77;;;29.40;98.30;;;;;;4137323;28;20478;-74
2021/07/14 11:22:49;;;;;;;16.20;14.63;;;29.70;98.30;;;;;;4137355;28;20496;-74
2021/07/14 11:24:59;;;;;;;15.33;13.93;;;29.80;98.30;;;;;;4137164;28;20501;-74
2021/07/14 11:27:53;;;;;;;15.33;14.03;;;29.90;98.30;;;;;;4137693;28;20512;-74
2021/07/14 11:30:17;;;;;;;16.30;14.90;;;29.50;98.30;;;;;;4137574;28;20477;-75
2021/07/14 11:32:50;;;;;;;15.40;14.00;;;29.60;98.30;;;;;;4137167;28;20473;-75
2021/07/14 11:34:59;;;;;;;15.40;14.10;;;29.90;98.30;;;;;;4137488;28;20498;-75
2021/07/14 11:37:20;;;;;;;15.20;13.83;;;30.60;98.30;;;;;;4137347;28;20478;-75
2021/07/14 11:39:30;;;;;;;14.70;13.43;;;30.80;98.30;;;;;;4137194;28;21296;-75
2021/07/14 11:41:36;;;;;;;15.80;14.60;;;30.40;98.30;;;;;;4139076;28;20465;-75
2021/07/14 11:43:42;;;;;;;15.90;14.60;;;30.00;98.30;;;;;;4140037;28;20468;-73
2021/07/14 11:45:46;;;;;;;18.03;15.13;;;29.80;98.30;;;;;;4139794;28;20517;-74
2021/07/14 11:47:59;;;;;;;16.80;15.10;;;29.80;98.30;;;;;;4140278;28;20902;-74
2021/07/14 11:50:04;;;;;;;15.10;13.80;;;30.00;98.30;;;;;;4139988;28;20900;-74
2021/07/14 11:52:07;;;;;;;13.93;12.87;;;30.60;98.30;;;;;;4140287;28;20474;-74
2021/07/14 11:54:32;;;;;;;14.60;13.40;;;31.20;98.20;;;;;;4139839;28;21009;-74
2021/07/14 11:56:39;;;;;;;14.07;12.97;;;31.40;97.30;;;;;;4133843;28;20484;-74
2021/07/14 11:59:10;;;;;;;12.93;12.00;;;31.90;96.20;;;;;;4139756;28;20836;-74
2021/07/14 12:01:43;;;;;;;13.87;12.87;;;31.80;95.00;;;;;;4139516;28;20870;-74
2021/07/14 12:04:10;;;;;;;15.43;14.13;;;31.50;96.00;;;;;;4140079;28;20486;-75
2021/07/14 12:06:38;;;;;;;14.03;12.73;;;31.20;96.40;;;;;;4140065;28;20553;-75
2021/07/14 12:08:41;;;;;;;13.97;12.87;;;30.80;97.20;;;;;;4140240;28;20587;-75
2021/07/14 12:10:56;;;;;;;14.63;13.33;;;30.90;97.60;;;;;;4139786;28;20470;-75
2021/07/14 12:13:23;;;;;;;13.77;12.67;;;31.10;96.60;;;;;;4140738;28;20553;-75
2021/07/14 12:15:26;;;;;;;13.00;12.00;;;31.30;97.00;;;;;;4140947;28;20490;-75
2021/07/14 12:17:30;;;;;;;13.40;12.30;;;31.70;95.90;;;;;;4140159;28;20469;-75
2021/07/14 12:19:34;;;;;;;14.70;13.13;;;31.40;95.60;;;;;;4139548;28;20484;-74
2021/07/14 12:21:39;;;;;;;14.50;13.30;;;31.20;96.10;;;;;;4140175;28;20477;-75
2021/07/14 12:23:42;;;;;;;14.00;12.80;;;31.80;95.30;;;;;;4139690;28;20494;-76
2021/07/14 12:25:47;;;;;;;13.05;11.95;;;31.90;94.40;;;;;;4139820;28;20498;-76
2021/07/14 12:27:50;;;;;;;14.98;13.10;;;32.30;91.80;;;;;;4140005;28;20483;-75
2021/07/14 12:29:55;;;;;;;13.53;12.40;;;31.80;92.50;;;;;;4139647;28;20477;-75
2021/07/14 12:31:59;;;;;;;13.67;12.33;;;31.10;94.40;;;;;;4139358;28;20473;-74
2021/07/14 12:34:02;;;;;;;14.87;13.50;;;30.90;94.90;;;;;;4139617;28;20475;-77
2021/07/14 12:36:05;;;;;;;14.00;12.90;;;31.30;95.00;;;;;;4139570;28;20466;-74
2021/07/14 12:38:10;;;;;;;13.43;12.33;;;31.30;94.50;;;;;;4137063;28;20461;-75
2021/07/14 12:40:24;;;;;;;12.57;11.57;;;31.90;93.00;;;;;;4136749;28;20473;-74
2021/07/14 12:42:28;;;;;;;14.65;13.27;;;32.40;90.50;;;;;;4139353;28;20469;-74
2021/07/14 12:44:31;;;;;;;14.20;12.88;;;32.60;89.30;;;;;;4139199;28;20508;-74
2021/07/14 12:46:34;;;;;;;13.30;12.02;;;32.40;88.30;;;;;;4139661;28;20977;-73
2021/07/14 12:48:37;;;;;;;12.27;11.23;;;31.80;91.00;;;;;;4139829;28;21221;-74
2021/07/14 12:50:44;;;;;;;13.20;11.85;;;32.50;89.40;;;;;;4139372;28;20575;-73
2021/07/14 12:52:51;;;;;;;12.40;11.38;;;32.50;88.20;;;;;;4136856;28;20523;-75
2021/07/14 12:54:56;;;;;;;13.02;11.82;;;32.60;87.90;;;;;;4138103;28;20519;-73
2021/07/14 12:57:16;;;;;;;12.07;11.07;;;32.40;88.60;;;;;;4138436;28;20469;-72
2021/07/14 12:59:20;;;;;;;12.98;11.90;;;33.10;86.40;;;;;;4138828;28;20481;-72
2021/07/14 13:01:26;;;;;;;13.48;11.98;;;33.00;86.20;;;;;;4138839;28;20482;-73
2021/07/14 13:03:31;;;;;;;12.40;11.20;;;32.60;86.60;;;;;;4138143;28;20474;-73
2021/07/14 13:05:35;;;;;;;12.45;11.45;;;32.10;88.20;;;;;;4139161;28;21017;-72
2021/07/14 13:07:39;;;;;;;12.25;11.15;;;31.30;90.60;;;;;;4140120;28;20470;-72
2021/07/14 13:09:41;;;;;;;13.27;12.27;;;31.90;89.70;;;;;;4139981;28;20469;-72
2021/07/14 13:11:44;;;;;;;13.15;12.00;;;31.30;90.50;;;;;;4139260;28;20471;-73
2021/07/14 13:13:49;;;;;;;14.63;13.43;;;31.50;90.00;;;;;;4138545;28;20489;-75
2021/07/14 13:15:54;;;;;;;18.23;13.17;;;31.40;90.20;;;;;;4138791;28;20465;-72
2021/07/14 13:18:06;;;;;;;14.67;13.47;;;31.30;91.10;;;;;;4139098;28;20485;-75
2021/07/14 13:20:15;;;;;;;14.20;13.00;;;31.20;91.20;;;;;;4139214;28;20470;-72
2021/07/14 13:22:17;;;;;;;16.43;13.87;;;30.80;91.20;;;;;;4140726;28;20473;-74
2021/07/14 13:24:29;;;;;;;15.63;14.40;;;30.00;94.60;;;;;;4138861;28;20482;-72
2021/07/14 13:26:32;;;;;;;15.23;14.00;;;29.90;95.70;;;;;;4138690;28;20465;-74
2021/07/14 13:28:37;;;;;;;15.67;14.20;;;29.60;96.70;;;;;;4138935;28;20475;-72
2021/07/14 13:30:46;;;;;;;16.73;15.43;;;29.50;97.10;;;;;;4139963;28;20472;-72
2021/07/14 13:33:01;;;;;;;16.60;13.53;;;29.30;97.30;;;;;;4141792;28;20465;-72
2021/07/14 13:35:04;;;;;;;16.33;14.73;;;29.00;98.30;;;;;;4135650;28;20485;-74
2021/07/14 13:37:07;;;;;;;17.20;15.00;;;28.70;98.30;;;;;;4135114;28;20885;-72
2021/07/14 13:50:18;;;;;;;15.57;13.97;;;31.10;98.30;;;;;;4073704;28;20451;-81
2021/07/14 14:00:03;;;;;;;15.43;14.07;;;32.50;91.10;;;;;;4089026;28;20540;-81
2021/07/14 14:02:24;;;;;;;15.90;14.57;;;31.70;94.00;;;;;;4092961;28;20472;-81
2021/07/14 14:05:00;;;;;;;17.30;15.67;;;30.60;96.70;;;;;;4143061;28;20565;-82
2021/07/14 14:07:09;;;;;;;16.30;14.83;;;29.90;98.30;;;;;;4142870;28;20459;-82
2021/07/14 14:12:25;;;;;;;15.07;13.57;;;29.80;98.30;;;;;;4138312;28;20469;-82
2021/07/14 14:14:54;;;;;;;15.60;14.30;;;29.70;98.00;;;;;;4141233;28;20493;-82
2021/07/14 14:17:17;;;;;;;16.50;14.90;;;29.00;98.30;;;;;;4146316;28;20458;-81
2021/07/14 14:40:13;;;;;;;18.43;16.17;;;28.10;98.30;;;;;;4138937;28;20438;-83
2021/07/14 14:46:18;;;;;;;17.00;15.20;;;26.80;98.30;;;;;;4129696;28;21421;-83
2021/07/14 14:51:51;;;;;;;19.43;15.90;;;25.40;98.30;;;;;;4134382;28;21105;-83
2021/07/14 14:57:20;;;;;;;16.03;14.43;;;25.40;98.30;;;;;;4129352;28;20473;-82
2021/07/14 15:05:37;;;;;;;12.50;8.40;;;26.70;98.30;;;;;;4141763;28;20537;-82
2021/07/14 15:51:02;;;;;;;24.70;22.20;;;23.50;98.30;;;;;;4118659;28;20886;-83
2021/07/14 15:53:48;;;;;;;25.57;23.10;;;23.50;98.30;;;;;;4123097;28;20445;-83
2021/07/14 16:00:00;;;;;;;25.23;22.67;;;23.60;98.30;;;;;;4115684;28;20919;-83
2021/07/14 16:06:05;;;;;;;26.27;23.47;;;23.80;98.30;;;;;;4124728;28;20634;-83
2021/07/14 16:39:12;;;;;;;20.97;18.87;;;24.70;98.30;;;;;;4145867;28;20477;-83
2021/07/14 17:12:10;;;;;;;18.70;17.00;;;24.60;98.30;;;;;;3953737;30;20561;-83
2021/07/14 17:15:23;;;;;;;19.30;17.70;;;24.60;98.30;;;;;;3954092;30;20509;-84
2021/07/14 17:28:10;;;;;;;20.50;18.80;;;24.50;98.30;;;;;;3945330;30;20543;-83
2021/07/14 17:43:01;;;;;;;20.70;18.70;;;24.20;98.30;;;;;;4019333;29;20561;-84
2021/07/14 17:45:36;;;;;;;22.17;20.17;;;24.20;98.30;;;;;;4018835;29;20547;-84
2021/07/14 17:48:19;;;;;;;29.13;26.33;;;24.20;98.30;;;;;;3986048;29;20574;-83
2021/07/14 17:50:30;;;;;;;22.23;20.23;;;24.20;98.30;;;;;;4048151;29;20923;-83
2021/07/14 17:53:08;;;;;;;22.87;20.83;;;24.10;98.30;;;;;;4120529;28;20504;-84
2021/07/14 17:55:55;;;;;;;21.50;19.60;;;24.20;98.30;;;;;;4145449;28;21342;-83
2021/07/14 18:00:55;;;;;;;20.93;19.03;;;24.10;98.30;;;;;;4138215;28;20888;-83
2021/07/14 18:03:36;;;;;;;21.00;19.00;;;23.90;98.30;;;;;;4143112;28;21034;-82
2021/07/14 18:08:43;;;;;;;19.17;17.37;;;23.60;98.30;;;;;;4127037;28;21004;-82
2021/07/14 18:10:57;;;;;;;19.53;17.70;;;23.60;98.30;;;;;;4137366;28;20557;-83
2021/07/14 18:22:16;;;;;;;17.50;15.80;;;23.30;98.30;;;;;;4112905;28;20514;-83
2021/07/14 18:55:10;;;;;;;16.03;13.17;;;23.30;98.30;;;;;;4035352;29;21131;-83
2021/07/14 18:57:18;;;;;;;13.03;11.80;;;23.30;98.30;;;;;;4035362;29;20991;-83
2021/07/14 19:05:04;;;;;;;13.73;12.43;;;23.20;98.30;;;;;;4081902;29;20896;-83
2021/07/14 19:07:30;;;;;;;13.07;11.77;;;23.20;98.30;;;;;;4086819;29;20504;-83
2021/07/14 19:15:06;;;;;;;12.03;10.83;;;23.10;98.30;;;;;;4116432;28;20563;-83
2021/07/14 19:18:38;;;;;;;12.50;11.30;;;23.20;98.30;;;;;;4120985;28;20480;-83
2021/07/14 19:21:05;;;;;;;14.53;11.30;;;23.20;98.30;;;;;;4119444;28;20976;-83
2021/07/14 19:23:22;;;;;;;11.87;10.77;;;23.20;98.30;;;;;;4113288;28;20471;-83
2021/07/14 19:28:29;;;;;;;13.43;12.17;;;23.40;98.30;;;;;;4135887;28;20470;-83
2021/07/14 19:30:41;;;;;;;12.50;11.30;;;23.30;98.30;;;;;;4133149;28;20530;-83
2021/07/14 19:38:27;;;;;;;12.73;11.53;;;23.20;98.30;;;;;;4136024;28;20473;-83
2021/07/14 19:40:30;;;;;;;15.80;11.10;;;23.10;98.30;;;;;;4135644;28;20466;-83
2021/07/14 19:42:34;;;;;;;14.60;11.63;;;23.10;98.30;;;;;;4131651;28;20561;-83
2021/07/14 19:44:38;;;;;;;10.60;9.70;;;23.10;98.30;;;;;;4141597;28;20509;-83
2021/07/14 19:46:57;;;;;;;;;;;;;;;;;;;;;
2021/07/14 19:49:52;;;;;;;10.03;9.13;;;23.00;98.30;;;;;;4132821;28;21138;-86
2021/07/14 19:52:08;;;;;;;10.83;9.83;;;23.00;98.30;;;;;;4139529;28;21143;-86
2021/07/14 20:00:57;;;;;;;9.30;8.40;;;22.90;98.30;;;;;;4052606;29;20477;-86
2021/07/14 20:03:14;;;;;;;9.80;8.10;;;22.80;98.30;;;;;;4075794;29;20553;-85
2021/07/14 20:05:22;;;;;;;9.87;8.97;;;22.80;98.30;;;;;;4131567;28;20993;-84
2021/07/14 20:07:27;;;;;;;11.00;9.90;;;22.70;98.30;;;;;;4142072;28;20528;-85
2021/07/14 20:09:30;;;;;;;10.73;9.73;;;22.60;98.30;;;;;;4141879;28;20508;-85
2021/07/14 20:11:33;;;;;;;11.10;10.10;;;22.40;98.30;;;;;;4142654;28;21064;-85
2021/07/14 20:13:36;;;;;;;11.73;10.53;;;22.40;98.30;;;;;;4144984;28;20485;-84
2021/07/14 20:15:41;;;;;;;11.20;10.17;;;22.30;98.30;;;;;;4143678;28;20504;-85
2021/07/14 20:17:46;;;;;;;13.20;11.90;;;22.40;98.30;;;;;;4143694;28;20482;-85
2021/07/14 20:19:49;;;;;;;13.70;12.40;;;22.40;98.30;;;;;;4143221;28;20470;-85
2021/07/14 20:21:52;;;;;;;13.03;11.73;;;22.30;98.30;;;;;;4151069;28;20469;-85
2021/07/14 20:23:56;;;;;;;13.73;12.33;;;22.30;98.30;;;;;;4141167;28;20518;-85
2021/07/14 20:26:00;;;;;;;14.30;12.70;;;22.20;98.30;;;;;;4140514;28;20466;-84
2021/07/14 20:28:04;;;;;;;14.70;13.20;;;22.20;98.30;;;;;;4140977;28;20520;-86
2021/07/14 20:30:08;;;;;;;14.53;13.13;;;22.20;98.30;;;;;;4141509;28;20909;-85
2021/07/14 20:32:13;;;;;;;14.40;12.90;;;22.20;98.30;;;;;;4143407;28;20817;-85
2021/07/14 20:34:16;;;;;;;15.23;13.73;;;22.20;98.30;;;;;;4141520;28;20996;-85
2021/07/14 20:36:20;;;;;;;13.27;11.97;;;22.10;98.30;;;;;;4142180;28;20490;-85
2021/07/14 20:38:24;;;;;;;15.30;13.70;;;22.10;98.30;;;;;;4139555;28;20473;-85
2021/07/14 20:40:27;;;;;;;16.43;14.70;;;22.20;98.30;;;;;;4141154;28;20528;-84
2021/07/14 20:42:30;;;;;;;15.10;13.67;;;22.10;98.30;;;;;;4140250;28;20481;-84
2021/07/14 20:44:33;;;;;;;16.13;13.80;;;22.20;98.30;;;;;;4143281;28;20895;-83
2021/07/14 20:46:36;;;;;;;14.80;12.70;;;22.00;98.30;;;;;;4141657;28;20473;-83
2021/07/14 20:48:41;;;;;;;14.67;13.07;;;22.00;98.30;;;;;;4142140;28;20805;-83
2021/07/14 20:50:44;;;;;;;13.57;12.17;;;22.10;98.30;;;;;;4146693;28;20467;-83
2021/07/14 20:52:47;;;;;;;14.10;12.00;;;22.10;98.30;;;;;;4142184;28;22514;-85
2021/07/14 20:54:51;;;;;;;14.03;11.93;;;22.00;98.30;;;;;;4143318;28;20493;-84
2021/07/14 20:56:54;;;;;;;16.70;13.33;;;21.90;98.30;;;;;;4145983;28;20494;-84
2021/07/14 20:58:57;;;;;;;13.53;12.13;;;21.90;98.30;;;;;;4144426;28;20494;-84
2021/07/14 21:01:00;;;;;;;15.27;11.90;;;22.00;98.30;;;;;;4144516;28;20479;-84
2021/07/14 21:03:05;;;;;;;15.77;13.27;;;22.00;98.30;;;;;;4145799;28;20969;-84
2021/07/14 21:05:10;;;;;;;14.47;12.07;;;22.00;98.30;;;;;;4145802;28;20502;-83
2021/07/14 21:07:13;;;;;;;13.17;11.00;;;22.00;98.30;;;;;;4141622;28;20465;-83
2021/07/14 21:09:16;;;;;;;12.50;11.20;;;22.00;98.30;;;;;;4138574;28;20460;-83
2021/07/14 21:11:22;;;;;;;14.37;11.97;;;22.00;98.30;;;;;;4141060;28;20470;-83
2021/07/14 21:13:27;;;;;;;12.83;11.30;;;22.10;98.30;;;;;;4140350;28;20505;-83
2021/07/14 21:15:31;;;;;;;13.77;10.80;;;22.10;98.30;;;;;;4139594;28;20495;-83
2021/07/14 21:17:34;;;;;;;12.53;11.23;;;22.10;98.30;;;;;;4141197;28;20486;-83
2021/07/14 21:19:37;;;;;;;11.77;10.37;;;22.00;98.30;;;;;;4140264;28;20475;-83
2021/07/14 21:21:41;;;;;;;11.30;10.20;;;22.00;98.30;;;;;;4140415;28;20506;-83
2021/07/14 21:23:44;;;;;;;13.80;11.50;;;22.00;98.30;;;;;;4141691;28;20525;-83
2021/07/14 21:25:47;;;;;;;11.63;10.43;;;22.00;98.30;;;;;;4140943;28;20496;-83
2021/07/14 21:27:52;;;;;;;11.43;9.20;;;22.00;98.30;;;;;;4141271;28;20486;-83
2021/07/14 21:29:55;;;;;;;10.60;9.60;;;21.90;98.30;;;;;;4141145;28;20470;-83
2021/07/14 21:31:58;;;;;;;11.50;10.40;;;21.90;98.30;;;;;;4141087;28;20992;-82
2021/07/14 21:34:01;;;;;;;12.37;10.17;;;21.80;98.30;;;;;;4140517;28;20533;-83
2021/07/14 21:36:05;;;;;;;12.83;9.53;;;21.70;98.30;;;;;;4141856;28;20478;-83
2021/07/14 21:38:09;;;;;;;10.33;9.17;;;21.80;98.30;;;;;;4141671;28;20478;-83
2021/07/14 21:40:15;;;;;;;10.50;9.40;;;21.80;98.30;;;;;;4140797;28;20842;-83
2021/07/14 21:42:21;;;;;;;10.90;9.80;;;21.90;98.30;;;;;;4139181;28;20481;-83
2021/07/14 21:44:24;;;;;;;12.43;9.47;;;22.00;98.30;;;;;;4140652;28;20493;-83
2021/07/14 21:46:27;;;;;;;10.90;9.60;;;21.90;98.30;;;;;;4140081;28;20905;-82
2021/07/14 21:48:30;;;;;;;15.63;9.23;;;21.90;98.30;;;;;;4140248;28;20475;-83
2021/07/14 21:50:33;;;;;;;10.57;9.40;;;21.80;98.30;;;;;;4141246;28;20939;-83
2021/07/14 21:52:36;;;;;;;11.50;10.30;;;21.80;98.30;;;;;;4142847;28;20481;-83
2021/07/14 21:54:43;;;;;;;10.70;9.60;;;21.90;98.30;;;;;;4142340;28;21132;-83
2021/07/14 21:56:46;;;;;;;13.13;9.57;;;21.80;98.30;;;;;;4142668;28;20570;-82
2021/07/14 21:58:49;;;;;;;10.67;9.10;;;21.80;98.30;;;;;;4142404;28;20484;-83
2021/07/14 22:00:52;;;;;;;10.37;9.33;;;21.80;98.30;;;;;;4141864;28;20493;-83
2021/07/14 22:02:56;;;;;;;10.10;8.80;;;21.70;98.30;;;;;;4138276;28;20478;-83
2021/07/14 22:04:59;;;;;;;10.70;9.70;;;21.80;98.30;;;;;;4141980;28;21010;-83
2021/07/14 22:07:03;;;;;;;9.90;9.00;;;21.80;98.30;;;;;;4139336;28;20471;-83
2021/07/14 22:09:06;;;;;;;9.17;8.37;;;21.70;98.30;;;;;;4140607;28;20474;-83
2021/07/14 22:11:13;;;;;;;9.50;8.50;;;21.70;98.30;;;;;;4141628;28;20986;-82
2021/07/14 22:13:16;;;;;;;10.40;9.00;;;21.80;98.30;;;;;;4143145;28;21002;-82
2021/07/14 22:15:21;;;;;;;10.40;9.30;;;21.80;98.30;;;;;;4144664;28;20988;-82
2021/07/14 22:17:23;;;;;;;10.93;9.23;;;21.70;98.30;;;;;;4142206;28;20660;-82
2021/07/14 22:19:27;;;;;;;10.90;9.80;;;21.60;98.30;;;;;;4142293;28;20480;-83
2021/07/14 22:21:30;;;;;;;11.20;10.10;;;21.60;98.30;;;;;;4142132;28;20481;-82
2021/07/14 22:23:41;;;;;;;11.00;9.80;;;21.70;98.30;;;;;;4140561;28;20481;-82
2021/07/14 22:25:45;;;;;;;11.13;10.00;;;21.60;98.30;;;;;;4140103;28;20490;-82
2021/07/14 22:27:49;;;;;;;11.93;10.73;;;21.60;98.30;;;;;;4142607;28;20471;-82
2021/07/14 22:29:52;;;;;;;13.57;10.50;;;21.60;98.30;;;;;;4141915;28;20480;-82
2021/07/14 22:31:55;;;;;;;11.80;10.70;;;21.60;98.30;;;;;;4141207;28;20483;-82
2021/07/14 22:34:04;;;;;;;9.93;9.03;;;21.60;98.30;;;;;;4141820;28;20488;-82
2021/07/14 22:36:08;;;;;;;10.57;9.47;;;21.60;98.30;;;;;;4142319;28;20473;-82
2021/07/14 22:38:14;;;;;;;10.33;9.33;;;21.50;98.30;;;;;;4141747;28;20509;-82
2021/07/14 22:40:17;;;;;;;10.40;8.93;;;21.50;98.30;;;;;;4141966;28;20474;-83
2021/07/14 22:42:20;;;;;;;12.73;8.63;;;21.50;98.30;;;;;;4141948;28;20477;-82
2021/07/14 22:44:24;;;;;;;10.70;9.60;;;21.60;98.30;;;;;;4142038;28;20561;-82
2021/07/14 22:46:27;;;;;;;10.57;9.57;;;21.50;98.30;;;;;;4141559;28;20470;-83
2021/07/14 22:48:30;;;;;;;10.60;9.47;;;21.50;98.30;;;;;;4141761;28;20521;-82
2021/07/14 22:50:34;;;;;;;12.03;9.50;;;21.60;98.30;;;;;;4147885;28;20490;-82
2021/07/14 22:52:37;;;;;;;10.30;8.80;;;21.60;98.30;;;;;;4149968;28;21029;-83
2021/07/14 22:54:40;;;;;;;12.43;9.70;;;21.50;98.30;;;;;;4151044;28;20585;-83
2021/07/14 22:56:42;;;;;;;10.07;9.17;;;21.50;98.30;;;;;;4150463;28;20469;-82
2021/07/14 22:58:45;;;;;;;11.77;10.20;;;21.50;98.30;;;;;;4148785;28;20470;-82
2021/07/14 23:00:50;;;;;;;10.77;8.80;;;21.60;98.30;;;;;;4147251;28;20473;-82
2021/07/14 23:02:55;;;;;;;10.63;9.37;;;21.50;98.30;;;;;;4141253;28;20913;-83
2021/07/14 23:04:58;;;;;;;9.40;8.40;;;21.60;98.30;;;;;;4140620;28;20496;-82
2021/07/14 23:07:01;;;;;;;10.10;9.10;;;21.60;98.30;;;;;;4141027;28;20480;-82
2021/07/14 23:09:04;;;;;;;10.83;9.73;;;21.70;98.30;;;;;;4141506;28;20458;-82
2021/07/14 23:11:07;;;;;;;11.83;10.50;;;21.60;98.30;;;;;;4142246;28;20474;-83
2021/07/14 23:13:11;;;;;;;10.97;9.87;;;21.70;98.30;;;;;;4143955;28;20474;-82
2021/07/14 23:15:16;;;;;;;12.13;10.17;;;21.70;98.30;;;;;;4150833;28;20538;-82
2021/07/14 23:17:20;;;;;;;10.30;9.30;;;21.70;98.30;;;;;;4148403;28;20493;-82
2021/07/14 23:19:24;;;;;;;10.10;9.07;;;21.60;98.30;;;;;;4152287;28;20558;-82
2021/07/14 23:21:27;;;;;;;12.30;10.37;;;21.60;98.30;;;;;;4153934;28;20989;-83
2021/07/14 23:23:32;;;;;;;13.07;9.73;;;21.50;98.30;;;;;;4152351;28;20471;-83
2021/07/14 23:25:36;;;;;;;10.47;9.30;;;21.50;98.30;;;;;;4150729;28;20491;-83
2021/07/14 23:27:40;;;;;;;12.13;10.93;;;21.50;98.30;;;;;;4149139;28;20458;-83
2021/07/14 23:29:43;;;;;;;10.70;9.80;;;21.40;98.30;;;;;;4152158;28;20462;-83
2021/07/14 23:31:46;;;;;;;10.60;9.50;;;21.40;98.30;;;;;;4145367;28;21037;-83
2021/07/14 23:33:50;;;;;;;10.50;9.37;;;21.40;98.30;;;;;;4149384;28;20467;-82
2021/07/14 23:35:54;;;;;;;10.90;9.60;;;21.40;98.30;;;;;;4149491;28;21001;-82
2021/07/14 23:37:57;;;;;;;11.30;10.00;;;21.40;98.30;;;;;;4149168;28;20553;-82
2021/07/14 23:40:00;;;;;;;12.23;9.00;;;21.50;98.30;;;;;;4156588;28;20530;-83
2021/07/14 23:42:03;;;;;;;14.00;9.77;;;21.50;98.30;;;;;;4152562;28;20970;-82
2021/07/14 23:44:06;;;;;;;12.50;10.00;;;21.50;98.30;;;;;;4149503;28;20518;-83
2021/07/14 23:46:09;;;;;;;10.70;9.60;;;21.60;98.30;;;;;;4145404;28;20469;-82
2021/07/14 23:48:12;;;;;;;10.60;9.60;;;21.60;98.30;;;;;;4147402;28;20470;-82
2021/07/14 23:50:18;;;;;;;13.20;9.17;;;21.70;98.30;;;;;;4149181;28;20485;-82
2021/07/14 23:52:21;;;;;;;11.80;10.10;;;21.70;98.30;;;;;;4151671;28;20564;-82
2021/07/14 23:54:24;;;;;;;10.47;9.37;;;21.60;98.30;;;;;;4148295;28;20490;-82
2021/07/14 23:56:27;;;;;;;12.47;9.77;;;21.50;98.30;;;;;;4142698;28;20475;-82
2021/07/14 23:58:30;;;;;;;9.93;8.93;;;21.60;98.30;;;;;;4143497;28;20491;-82
